Time;durP1;ratioP1;P1;durP2;ratioP2;P2;SDS_P1;SDS_P2;PMS_P1;PMS_P2;Temp;Humidity;BMP_temperature;BMP_pressure;BME280_temperature;BME280_humidity;BME280_pressure;Samples;Min_cycle;Max_cycle;Signal;HPM_P1;HPM_P2
2021/12/25 00:01:13;;;;;;;9.68;4.80;;;8.10;99.90;;;;;;2018509;70;21098;-74
2021/12/25 00:03:39;;;;;;;5.90;4.90;;;8.10;99.90;;;;;;2022587;69;21020;-74
2021/12/25 00:06:05;;;;;;;10.15;5.40;;;8.20;99.90;;;;;;2020669;70;21083;-74
2021/12/25 00:08:31;;;;;;;5.45;4.72;;;8.10;99.90;;;;;;2025025;69;21121;-74
2021/12/25 00:10:57;;;;;;;7.75;5.10;;;8.00;99.90;;;;;;2020102;70;21039;-74
2021/12/25 00:13:23;;;;;;;6.33;4.85;;;8.10;99.90;;;;;;2019605;70;21015;-74
2021/12/25 00:15:50;;;;;;;9.90;5.28;;;8.10;99.90;;;;;;2018550;71;21027;-74
2021/12/25 00:18:16;;;;;;;8.85;5.20;;;8.10;99.90;;;;;;2022091;69;21052;-74
2021/12/25 00:20:42;;;;;;;8.35;5.60;;;8.00;99.90;;;;;;2019885;70;21126;-75
2021/12/25 00:23:08;;;;;;;8.73;5.15;;;7.90;99.90;;;;;;2021034;70;21115;-75
2021/12/25 00:25:38;;;;;;;10.40;5.42;;;7.90;99.90;;;;;;2023486;70;21021;-75
2021/12/25 00:28:55;;;;;;;7.95;5.03;;;7.90;99.90;;;;;;2022822;70;21036;-74
2021/12/25 00:30:40;;;;;;;8.55;5.30;;;7.90;99.90;;;;;;1999385;70;21042;-74
2021/12/25 00:33:18;;;;;;;8.40;4.90;;;8.00;99.90;;;;;;2018913;70;21126;-75
2021/12/25 00:35:28;;;;;;;11.83;5.55;;;8.10;99.90;;;;;;2017014;70;21432;-75
2021/12/25 00:37:54;;;;;;;6.75;5.00;;;7.90;99.90;;;;;;2020847;70;21425;-75
2021/12/25 00:40:22;;;;;;;6.92;4.00;;;8.00;99.90;;;;;;2023511;70;21551;-74
2021/12/25 00:42:48;;;;;;;6.00;4.35;;;8.10;99.90;;;;;;2018336;70;21048;-74
2021/12/25 00:45:14;;;;;;;5.75;4.55;;;8.10;99.90;;;;;;2023073;70;21128;-74
2021/12/25 00:47:40;;;;;;;8.55;4.15;;;8.00;99.90;;;;;;2020785;70;21042;-75
2021/12/25 00:50:06;;;;;;;5.60;4.40;;;7.90;99.90;;;;;;2022361;70;21186;-75
2021/12/25 00:52:32;;;;;;;8.38;4.55;;;7.90;99.90;;;;;;2022685;70;21463;-75
2021/12/25 00:55:00;;;;;;;6.85;5.08;;;8.00;99.90;;;;;;2018445;71;21524;-75
2021/12/25 00:57:26;;;;;;;6.15;5.00;;;8.00;99.90;;;;;;2022649;70;21051;-74
2021/12/25 00:59:52;;;;;;;7.50;4.75;;;8.10;99.90;;;;;;2023600;69;21128;-73
2021/12/25 01:02:18;;;;;;;8.53;5.15;;;8.10;99.90;;;;;;2018450;71;21048;-75
2021/12/25 01:04:45;;;;;;;5.92;4.80;;;8.00;99.90;;;;;;2020589;70;21020;-75
2021/12/25 01:07:11;;;;;;;7.92;5.15;;;7.90;99.90;;;;;;2018452;70;21432;-74
2021/12/25 01:09:37;;;;;;;9.93;6.22;;;8.00;99.90;;;;;;2019730;70;21471;-74
2021/12/25 01:12:04;;;;;;;5.95;4.97;;;8.00;99.90;;;;;;2019694;70;21571;-75
2021/12/25 01:14:48;;;;;;;8.85;5.25;;;8.00;99.90;;;;;;2018331;70;21047;-75
2021/12/25 01:20:22;;;;;;;7.83;4.85;;;8.10;99.90;;;;;;2018720;70;21040;-74
2021/12/25 01:23:08;;;;;;;9.13;5.08;;;7.90;99.90;;;;;;2017863;70;21051;-75
2021/12/25 01:30:24;;;;;;;5.70;4.90;;;7.70;99.90;;;;;;2022204;70;21073;-74
2021/12/25 01:38:36;;;;;;;4.55;3.95;;;7.80;99.90;;;;;;2018428;71;21081;-73
2021/12/25 01:48:46;;;;;;;6.45;4.37;;;8.00;99.90;;;;;;2018439;70;21156;-72
2021/12/25 01:51:12;;;;;;;7.12;4.25;;;8.00;99.90;;;;;;2020863;70;21055;-72
2021/12/25 01:53:39;;;;;;;6.20;5.30;;;7.80;99.90;;;;;;2024603;70;21107;-72
2021/12/25 01:56:05;;;;;;;8.40;5.72;;;7.80;99.90;;;;;;2015558;69;21102;-72
2021/12/25 01:58:31;;;;;;;5.30;4.60;;;7.90;99.90;;;;;;2018453;70;21043;-73
2021/12/25 02:00:57;;;;;;;8.58;4.75;;;8.00;99.90;;;;;;2019257;70;21121;-73
2021/12/25 02:03:23;;;;;;;6.35;4.83;;;7.90;99.90;;;;;;2021603;70;21056;-72
2021/12/25 02:05:49;;;;;;;7.67;4.72;;;7.80;99.90;;;;;;2021803;70;21048;-73
2021/12/25 02:08:15;;;;;;;10.48;5.33;;;7.80;99.90;;;;;;2022129;70;21601;-73
2021/12/25 02:10:42;;;;;;;5.45;4.62;;;7.70;99.90;;;;;;2019744;70;21462;-74
2021/12/25 02:13:09;;;;;;;5.25;4.28;;;7.70;99.90;;;;;;2019290;70;21432;-74
2021/12/25 02:15:35;;;;;;;6.75;5.40;;;7.60;99.90;;;;;;2022919;70;21083;-74
2021/12/25 02:18:11;;;;;;;7.85;5.30;;;7.70;99.90;;;;;;2021748;71;21094;-74
2021/12/25 02:20:37;;;;;;;;;;;7.80;99.90;;;;;;2020895;70;21149;-74
2021/12/25 02:23:03;;;;;;;5.45;4.67;;;7.70;99.90;;;;;;2020032;70;20155;-73
2021/12/25 02:25:28;;;;;;;7.67;5.00;;;7.80;99.90;;;;;;2022414;71;21424;-72
2021/12/25 02:27:55;;;;;;;7.08;4.95;;;7.80;99.90;;;;;;2023689;70;21029;-73
2021/12/25 02:30:21;;;;;;;7.47;4.17;;;7.70;99.90;;;;;;2020772;70;21045;-74
2021/12/25 02:32:47;;;;;;;4.87;4.22;;;7.80;99.90;;;;;;2019294;70;21065;-74
2021/12/25 02:35:13;;;;;;;4.95;4.50;;;7.80;99.90;;;;;;2021827;70;21014;-74
2021/12/25 02:37:40;;;;;;;5.35;4.78;;;7.90;99.90;;;;;;2019424;70;21021;-73
2021/12/25 02:40:06;;;;;;;6.12;4.15;;;7.90;99.90;;;;;;2022837;70;21083;-74
2021/12/25 02:42:34;;;;;;;6.60;4.67;;;7.70;99.90;;;;;;2021036;71;21039;-73
2021/12/25 02:45:00;;;;;;;6.42;4.83;;;7.70;99.90;;;;;;2020807;70;21549;-73
2021/12/25 02:47:29;;;;;;;6.28;4.95;;;7.70;99.90;;;;;;2019631;70;21616;-73
2021/12/25 02:49:54;;;;;;;7.70;5.12;;;7.70;99.90;;;;;;2022441;70;21132;-73
2021/12/25 02:52:20;;;;;;;5.83;5.08;;;7.60;99.90;;;;;;2021932;70;21035;-73
2021/12/25 02:54:46;;;;;;;8.18;5.10;;;7.60;99.90;;;;;;2023743;70;21103;-73
2021/12/25 02:57:12;;;;;;;7.00;5.47;;;7.60;99.90;;;;;;2019913;70;21038;-72
2021/12/25 02:59:38;;;;;;;5.85;5.20;;;7.50;99.90;;;;;;2024129;70;21128;-73
2021/12/25 03:02:04;;;;;;;9.45;5.58;;;7.50;99.90;;;;;;2020109;70;21109;-73
2021/12/25 03:04:31;;;;;;;12.28;6.05;;;7.70;99.90;;;;;;2019119;71;21043;-74
2021/12/25 03:06:57;;;;;;;10.13;6.33;;;7.60;99.90;;;;;;2021067;70;21036;-73
2021/12/25 03:09:23;;;;;;;7.37;5.10;;;7.50;99.90;;;;;;2021320;70;21052;-73
2021/12/25 03:11:49;;;;;;;10.32;5.55;;;7.60;99.90;;;;;;2020352;70;21464;-73
2021/12/25 03:14:32;;;;;;;8.03;6.55;;;7.60;99.90;;;;;;2021042;70;21448;-73
2021/12/25 03:16:43;;;;;;;9.30;6.20;;;7.50;99.90;;;;;;2019901;70;21040;-74
2021/12/25 03:19:18;;;;;;;9.83;6.00;;;7.60;99.90;;;;;;2018301;71;21113;-74
2021/12/25 03:21:37;;;;;;;7.05;6.03;;;7.60;99.90;;;;;;2017666;70;21166;-74
2021/12/25 03:24:03;;;;;;;8.28;5.65;;;7.40;99.90;;;;;;2022172;70;21035;-74
2021/12/25 03:26:29;;;;;;;6.33;5.37;;;7.40;99.90;;;;;;2019599;69;21044;-74
2021/12/25 03:28:58;;;;;;;7.42;5.92;;;7.40;99.90;;;;;;2020675;70;21459;-74
2021/12/25 03:31:23;;;;;;;10.50;5.87;;;7.30;99.90;;;;;;2020809;69;21084;-74
2021/12/25 03:33:49;;;;;;;6.83;5.37;;;7.40;99.90;;;;;;2021203;70;21047;-74
2021/12/25 03:36:15;;;;;;;8.15;6.20;;;7.30;99.90;;;;;;2020287;70;21044;-73
2021/12/25 03:38:41;;;;;;;8.93;5.95;;;7.30;99.90;;;;;;2024257;70;21035;-73
2021/12/25 03:41:08;;;;;;;8.90;6.20;;;7.30;99.90;;;;;;2020342;69;21035;-74
2021/12/25 03:43:34;;;;;;;6.65;5.67;;;7.20;99.90;;;;;;2020102;70;21039;-74
2021/12/25 03:46:00;;;;;;;6.97;5.53;;;7.20;99.90;;;;;;2018911;70;21433;-74
2021/12/25 04:01:53;;;;;;;8.95;5.92;;;7.30;99.90;;;;;;2021152;70;21031;-73
2021/12/25 04:04:24;;;;;;;8.98;5.95;;;7.50;99.90;;;;;;2011728;70;21523;-73
2021/12/25 04:06:58;;;;;;;10.82;6.30;;;7.30;99.90;;;;;;2019479;70;21073;-73
2021/12/25 04:09:25;;;;;;;;;;;7.30;99.90;;;;;;2020024;70;21029;-73
2021/12/25 04:11:49;;;;;;;8.88;6.35;;;7.30;99.90;;;;;;2021680;70;20382;-74
2021/12/25 04:14:15;;;;;;;8.33;6.42;;;7.50;99.90;;;;;;2023479;69;21048;-73
2021/12/25 04:16:41;;;;;;;6.95;6.17;;;7.30;99.90;;;;;;2022047;70;21085;-73
2021/12/25 04:19:08;;;;;;;8.58;6.55;;;7.30;99.90;;;;;;2022915;69;21048;-76
2021/12/25 04:21:36;;;;;;;9.13;5.87;;;7.40;99.90;;;;;;2019716;69;21106;-74
2021/12/25 04:24:02;;;;;;;10.63;6.22;;;7.40;99.90;;;;;;2019892;70;21056;-74
2021/12/25 04:26:28;;;;;;;9.10;6.17;;;7.50;99.90;;;;;;2021469;70;21050;-74
2021/12/25 04:31:59;;;;;;;7.20;6.08;;;7.40;99.90;;;;;;2022429;70;21149;-74
2021/12/25 04:50:25;;;;;;;9.58;5.47;;;7.40;99.90;;;;;;2021814;70;21101;-74
2021/12/25 05:06:00;;;;;;;6.78;5.08;;;7.70;99.90;;;;;;2018669;70;21043;-73
2021/12/25 05:08:27;;;;;;;12.68;4.97;;;7.70;99.90;;;;;;2018833;70;21091;-74
2021/12/25 05:10:54;;;;;;;7.47;5.28;;;7.70;99.90;;;;;;2020562;70;21039;-75
2021/12/25 05:13:20;;;;;;;8.88;5.25;;;7.70;99.90;;;;;;2018387;71;21031;-74
2021/12/25 05:15:47;;;;;;;6.22;5.35;;;7.60;99.90;;;;;;2021051;70;21096;-74
2021/12/25 05:18:13;;;;;;;5.80;4.97;;;7.60;99.90;;;;;;2019541;71;21013;-75
2021/12/25 05:20:39;;;;;;;8.00;6.28;;;7.70;99.90;;;;;;2020037;70;21044;-75
2021/12/25 05:23:06;;;;;;;9.60;5.87;;;7.60;99.90;;;;;;2023076;71;21032;-73
2021/12/25 05:25:33;;;;;;;9.18;5.62;;;7.50;99.90;;;;;;2023114;70;21055;-73
2021/12/25 05:28:00;;;;;;;7.85;6.03;;;7.40;99.90;;;;;;2020995;70;21055;-73
2021/12/25 05:30:26;;;;;;;9.75;6.15;;;7.40;99.90;;;;;;2021077;70;21458;-76
2021/12/25 05:32:52;;;;;;;7.62;6.22;;;7.40;99.90;;;;;;2021056;69;21035;-75
2021/12/25 05:35:18;;;;;;;8.68;6.10;;;7.40;99.90;;;;;;2022842;70;21094;-73
2021/12/25 05:37:45;;;;;;;7.00;5.75;;;7.40;99.90;;;;;;2019466;70;21039;-73
2021/12/25 05:40:12;;;;;;;9.65;6.50;;;7.40;99.90;;;;;;2020525;70;21113;-73
2021/12/25 05:42:38;;;;;;;6.90;5.90;;;7.30;99.90;;;;;;2023402;70;21046;-73
2021/12/25 05:45:04;;;;;;;6.97;6.03;;;7.30;99.90;;;;;;2021703;70;21047;-73
2021/12/25 05:47:30;;;;;;;8.83;6.15;;;7.40;99.90;;;;;;2021408;70;21120;-75
2021/12/25 05:49:57;;;;;;;9.50;7.45;;;7.30;99.90;;;;;;2021484;70;21102;-74
2021/12/25 05:52:23;;;;;;;6.90;5.87;;;7.20;99.90;;;;;;2019505;70;21121;-73
2021/12/25 05:54:49;;;;;;;9.03;6.87;;;7.30;99.90;;;;;;2022460;70;21012;-73
2021/12/25 05:57:15;;;;;;;8.50;6.80;;;7.20;99.90;;;;;;2018301;71;21553;-73
2021/12/25 05:59:41;;;;;;;8.90;6.35;;;7.30;99.90;;;;;;2021417;70;21472;-74
2021/12/25 06:02:07;;;;;;;10.13;6.33;;;7.20;99.90;;;;;;2019500;69;21569;-74
2021/12/25 06:04:34;;;;;;;8.98;6.15;;;7.10;99.90;;;;;;2021135;70;21541;-73
2021/12/25 06:07:01;;;;;;;7.37;5.55;;;7.30;99.90;;;;;;2018466;71;21048;-74
2021/12/25 06:09:27;;;;;;;8.40;6.17;;;7.30;99.90;;;;;;2019630;70;21138;-74
2021/12/25 06:11:53;;;;;;;8.58;6.37;;;7.10;99.90;;;;;;2018185;70;21060;-74
2021/12/25 06:14:21;;;;;;;8.33;5.97;;;7.10;99.90;;;;;;2018339;70;21047;-74
2021/12/25 06:16:47;;;;;;;7.55;6.30;;;7.20;99.90;;;;;;2021058;70;21511;-74
2021/12/25 06:19:13;;;;;;;6.58;5.92;;;7.40;99.90;;;;;;2023221;70;21043;-75
2021/12/25 06:21:39;;;;;;;8.00;6.37;;;7.40;99.90;;;;;;2019345;70;21148;-74
2021/12/25 06:24:06;;;;;;;6.97;6.00;;;7.30;99.90;;;;;;2018652;71;21032;-74
2021/12/25 06:26:32;;;;;;;7.78;5.60;;;7.40;99.90;;;;;;2020395;69;21527;-74
2021/12/25 06:28:58;;;;;;;8.75;6.03;;;7.30;99.90;;;;;;2019855;70;21474;-74
2021/12/25 06:31:24;;;;;;;9.18;6.78;;;7.20;99.90;;;;;;2022803;70;21388;-74
2021/12/25 06:33:50;;;;;;;7.37;6.00;;;7.40;99.90;;;;;;2019598;69;21487;-75
2021/12/25 06:36:16;;;;;;;7.92;6.15;;;7.40;99.90;;;;;;2022375;70;21074;-74
2021/12/25 06:38:42;;;;;;;10.05;7.00;;;7.40;99.90;;;;;;2021623;70;21044;-75
2021/12/25 06:41:10;;;;;;;12.25;6.50;;;7.40;99.90;;;;;;2021301;70;21035;-74
2021/12/25 06:43:36;;;;;;;8.20;6.30;;;7.40;99.90;;;;;;2024457;70;21553;-73
2021/12/25 06:46:03;;;;;;;8.98;6.25;;;7.30;99.90;;;;;;2022842;69;21436;-74
2021/12/25 06:48:29;;;;;;;13.30;6.85;;;7.30;99.90;;;;;;2018780;70;21048;-73
2021/12/25 06:50:55;;;;;;;9.23;5.92;;;7.30;99.90;;;;;;2020400;70;21035;-74
2021/12/25 06:53:21;;;;;;;7.87;6.60;;;7.20;99.90;;;;;;2019183;71;21098;-73
2021/12/25 06:55:47;;;;;;;9.13;7.37;;;7.20;99.90;;;;;;2020735;70;21095;-73
2021/12/25 06:58:13;;;;;;;7.37;5.80;;;7.30;99.90;;;;;;2019390;70;21077;-73
2021/12/25 07:00:39;;;;;;;9.78;6.60;;;7.30;99.90;;;;;;2023434;70;21039;-73
2021/12/25 07:03:05;;;;;;;8.33;6.50;;;7.20;99.90;;;;;;2021436;71;21039;-73
2021/12/25 07:05:32;;;;;;;8.50;6.37;;;7.20;99.90;;;;;;2018569;70;21064;-73
2021/12/25 07:07:58;;;;;;;7.65;6.30;;;7.30;99.90;;;;;;2021161;70;21121;-73
2021/12/25 07:10:24;;;;;;;9.85;7.50;;;7.10;99.90;;;;;;2021976;69;21132;-74
2021/12/25 07:12:53;;;;;;;9.83;6.37;;;7.10;99.90;;;;;;2022563;70;21009;-74
2021/12/25 07:15:18;;;;;;;10.23;6.87;;;7.20;99.90;;;;;;2018208;70;21078;-74
2021/12/25 07:17:44;;;;;;;9.20;7.45;;;7.10;99.90;;;;;;2023097;70;21113;-74
2021/12/25 07:20:10;;;;;;;8.50;7.15;;;7.30;99.90;;;;;;2023535;69;21042;-75
2021/12/25 07:22:36;;;;;;;10.30;7.50;;;7.20;99.90;;;;;;2023258;70;21040;-74
2021/12/25 07:25:02;;;;;;;9.75;7.58;;;7.10;99.90;;;;;;2021836;70;21199;-73
2021/12/25 07:27:28;;;;;;;9.58;7.35;;;7.10;99.90;;;;;;2021303;69;21121;-73
2021/12/25 07:29:54;;;;;;;11.75;8.08;;;7.10;99.90;;;;;;2018488;71;21028;-72
2021/12/25 07:32:21;;;;;;;13.88;8.25;;;7.20;99.90;;;;;;2019817;70;21052;-73
2021/12/25 07:34:47;;;;;;;12.68;7.60;;;7.30;99.90;;;;;;2020574;70;21500;-72
2021/12/25 07:37:14;;;;;;;10.38;7.92;;;7.40;99.90;;;;;;2019364;71;21094;-73
2021/12/25 07:39:40;;;;;;;12.10;7.42;;;7.30;99.90;;;;;;2020646;70;21121;-74
2021/12/25 07:42:06;;;;;;;11.20;8.45;;;7.30;99.90;;;;;;2021526;69;21480;-75
2021/12/25 07:44:32;;;;;;;7.90;7.05;;;7.20;99.90;;;;;;2018529;71;21452;-74
2021/12/25 07:46:59;;;;;;;12.20;7.83;;;7.40;99.90;;;;;;2021727;69;21484;-74
2021/12/25 07:49:26;;;;;;;14.13;8.05;;;7.30;99.90;;;;;;2021181;70;21043;-74
2021/12/25 07:51:52;;;;;;;11.90;7.80;;;7.20;99.90;;;;;;2022747;70;21113;-75
2021/12/25 07:54:18;;;;;;;10.13;8.00;;;7.20;99.90;;;;;;2019487;69;21121;-76
2021/12/25 07:56:45;;;;;;;10.43;8.13;;;7.30;99.90;;;;;;2019073;70;21113;-75
2021/12/25 07:59:11;;;;;;;10.48;7.83;;;7.40;99.90;;;;;;2023287;70;21011;-74
2021/12/25 08:01:37;;;;;;;11.03;7.60;;;7.40;99.90;;;;;;2023069;70;21148;-74
2021/12/25 08:04:03;;;;;;;10.00;7.85;;;7.40;99.90;;;;;;2022250;70;21201;-74
2021/12/25 08:06:30;;;;;;;11.33;7.78;;;7.40;99.90;;;;;;2020452;71;21109;-74
2021/12/25 08:08:59;;;;;;;11.75;8.38;;;7.40;99.90;;;;;;2020722;70;21048;-73
2021/12/25 08:11:24;;;;;;;10.93;8.15;;;7.50;99.90;;;;;;2018138;70;21465;-72
2021/12/25 08:13:50;;;;;;;11.05;8.80;;;7.60;99.90;;;;;;2022860;70;21047;-75
2021/12/25 08:16:16;;;;;;;12.20;8.03;;;7.70;99.90;;;;;;2021704;70;21042;-74
2021/12/25 08:18:42;;;;;;;13.53;8.45;;;7.70;99.90;;;;;;2022468;70;21148;-74
2021/12/25 08:21:09;;;;;;;10.80;8.03;;;7.70;99.90;;;;;;2021012;70;21044;-75
2021/12/25 08:23:35;;;;;;;14.30;7.25;;;7.80;99.90;;;;;;2021879;71;21105;-74
2021/12/25 08:26:01;;;;;;;10.38;6.78;;;7.90;99.90;;;;;;2006165;71;21016;-74
2021/12/25 08:28:27;;;;;;;12.28;7.97;;;7.90;99.90;;;;;;2021501;71;21170;-74
2021/12/25 08:30:53;;;;;;;10.50;7.37;;;8.10;99.90;;;;;;2018399;71;21115;-73
2021/12/25 08:33:20;;;;;;;12.28;7.92;;;8.20;99.90;;;;;;2020850;70;21036;-73
2021/12/25 08:35:46;;;;;;;8.28;7.17;;;8.20;99.90;;;;;;2022990;70;21501;-74
2021/12/25 08:38:12;;;;;;;11.88;8.05;;;8.30;99.90;;;;;;2020429;71;21037;-75
2021/12/25 08:40:38;;;;;;;14.55;6.90;;;8.30;99.90;;;;;;2020635;70;21161;-73
2021/12/25 08:43:05;;;;;;;12.25;7.08;;;8.30;99.90;;;;;;2018438;70;21032;-75
2021/12/25 08:45:42;;;;;;;10.95;6.72;;;8.40;99.90;;;;;;2018455;70;21436;-76
2021/12/25 08:48:08;;;;;;;13.98;7.37;;;8.40;99.90;;;;;;2021699;70;21098;-76
2021/12/25 08:50:34;;;;;;;14.15;8.78;;;8.60;99.90;;;;;;2021196;69;21460;-76
2021/12/25 08:53:00;;;;;;;12.47;8.03;;;8.60;99.90;;;;;;2020723;70;21040;-75
2021/12/25 08:55:27;;;;;;;12.80;8.18;;;8.70;99.90;;;;;;2015869;70;21141;-76
2021/12/25 08:57:53;;;;;;;10.95;7.20;;;8.60;99.90;;;;;;2018413;70;21121;-79
2021/12/25 09:00:23;;;;;;;9.45;6.80;;;8.60;99.90;;;;;;2020028;70;21048;-80
2021/12/25 09:02:47;;;;;;;8.05;6.60;;;8.50;99.90;;;;;;2016300;69;21164;-79
2021/12/25 09:05:13;;;;;;;9.00;6.72;;;8.50;99.90;;;;;;2018445;70;21028;-74
2021/12/25 09:07:39;;;;;;;11.95;6.72;;;8.40;99.90;;;;;;2018709;71;21040;-77
2021/12/25 09:10:05;;;;;;;8.95;6.95;;;8.50;99.90;;;;;;2019642;69;21121;-76
2021/12/25 09:12:35;;;;;;;7.50;6.30;;;8.50;99.90;;;;;;2020841;69;21050;-76
2021/12/25 09:15:00;;;;;;;9.45;6.78;;;8.50;99.90;;;;;;2020783;70;21457;-77
2021/12/25 09:17:26;;;;;;;10.43;6.37;;;8.50;99.90;;;;;;2023164;69;21047;-76
2021/12/25 09:19:52;;;;;;;7.62;5.62;;;8.40;99.90;;;;;;2020518;70;21031;-77
2021/12/25 09:22:19;;;;;;;10.98;6.37;;;8.60;99.90;;;;;;2023771;70;21056;-76
2021/12/25 09:24:45;;;;;;;12.85;8.30;;;8.60;99.90;;;;;;2019369;70;21047;-77
2021/12/25 09:27:11;;;;;;;11.40;9.43;;;8.60;99.90;;;;;;2023376;70;21119;-77
2021/12/25 09:29:37;;;;;;;16.52;8.78;;;8.50;99.90;;;;;;2022215;70;21108;-78
2021/12/25 09:32:05;;;;;;;15.45;10.18;;;8.60;99.90;;;;;;2022373;70;21004;-76
2021/12/25 09:34:31;;;;;;;15.50;10.00;;;8.50;99.90;;;;;;2023465;70;21025;-77
2021/12/25 09:36:57;;;;;;;14.50;9.30;;;8.40;99.90;;;;;;2019810;70;21032;-76
2021/12/25 09:39:23;;;;;;;17.17;10.05;;;8.60;99.90;;;;;;2020550;70;21121;-77
2021/12/25 09:41:49;;;;;;;15.15;10.10;;;8.40;99.90;;;;;;2022645;70;21051;-77
2021/12/25 09:44:15;;;;;;;20.48;9.95;;;8.40;99.90;;;;;;2022692;70;21020;-77
2021/12/25 09:46:42;;;;;;;11.93;8.30;;;8.40;99.90;;;;;;2019715;71;21028;-76
2021/12/25 09:49:08;;;;;;;13.18;8.78;;;8.40;99.90;;;;;;2021904;70;21160;-77
2021/12/25 09:51:34;;;;;;;13.78;9.38;;;8.50;99.90;;;;;;2018330;71;21040;-76
2021/12/25 09:54:00;;;;;;;22.30;10.63;;;8.70;99.90;;;;;;2018492;70;21106;-77
2021/12/25 09:56:26;;;;;;;16.15;9.53;;;8.70;99.90;;;;;;2018277;70;21113;-76
2021/12/25 09:58:52;;;;;;;12.47;9.05;;;8.90;99.90;;;;;;2023710;69;21021;-76
2021/12/25 10:01:18;;;;;;;13.62;9.08;;;8.90;99.90;;;;;;2019809;71;21164;-76
2021/12/25 10:03:45;;;;;;;9.10;7.47;;;9.00;99.90;;;;;;2020454;70;21161;-77
2021/12/25 10:06:11;;;;;;;9.05;7.40;;;9.00;99.90;;;;;;2021235;69;21118;-76
2021/12/25 10:08:38;;;;;;;11.85;8.55;;;8.90;99.90;;;;;;2019756;70;21109;-77
2021/12/25 10:11:04;;;;;;;16.37;9.43;;;8.80;99.90;;;;;;2018277;70;21164;-76
2021/12/25 10:13:30;;;;;;;11.75;7.97;;;8.80;99.90;;;;;;2020075;70;21446;-77
2021/12/25 10:15:56;;;;;;;11.30;8.60;;;8.80;99.90;;;;;;2020813;70;21110;-76
2021/12/25 10:18:23;;;;;;;15.55;9.90;;;9.00;99.90;;;;;;2020411;70;21024;-76
2021/12/25 10:20:49;;;;;;;17.90;9.60;;;9.00;99.90;;;;;;2021419;70;21143;-76
2021/12/25 10:23:22;;;;;;;11.30;8.38;;;9.00;99.90;;;;;;2021358;69;21121;-76
2021/12/25 10:25:43;;;;;;;10.35;8.43;;;9.10;99.90;;;;;;2017852;70;21038;-77
2021/12/25 10:28:10;;;;;;;9.43;7.72;;;9.10;99.90;;;;;;2021757;70;21153;-77
2021/12/25 10:30:37;;;;;;;11.40;7.55;;;9.30;99.90;;;;;;2019741;70;21117;-77
2021/12/25 10:33:03;;;;;;;13.80;7.92;;;9.30;99.90;;;;;;2024057;70;21113;-77
2021/12/25 10:35:29;;;;;;;13.20;7.92;;;9.30;99.90;;;;;;2018825;70;21067;-77
2021/12/25 10:37:55;;;;;;;9.95;7.42;;;9.20;99.90;;;;;;2021036;70;21043;-77
2021/12/25 10:40:24;;;;;;;15.48;6.80;;;9.30;99.90;;;;;;2018396;70;21125;-77
2021/12/25 10:42:49;;;;;;;9.88;6.87;;;9.50;99.90;;;;;;2021648;70;21083;-76
2021/12/25 10:45:15;;;;;;;8.80;7.28;;;9.60;99.90;;;;;;2018635;71;21097;-78
2021/12/25 10:47:42;;;;;;;15.53;8.18;;;9.60;99.90;;;;;;2022549;70;21448;-77
2021/12/25 10:50:08;;;;;;;11.63;7.70;;;9.60;99.90;;;;;;2021997;70;21103;-77
2021/12/25 10:52:40;;;;;;;13.00;8.65;;;9.80;99.90;;;;;;2023078;71;21030;-77
2021/12/25 10:55:02;;;;;;;10.78;7.40;;;9.80;99.90;;;;;;2020622;70;21077;-77
2021/12/25 10:57:29;;;;;;;25.43;10.95;;;9.90;99.90;;;;;;2022118;70;21087;-77
2021/12/25 10:59:55;;;;;;;13.48;8.10;;;9.90;99.90;;;;;;2021572;70;21060;-77
2021/12/25 11:02:21;;;;;;;25.27;11.95;;;10.10;99.90;;;;;;2018426;71;21117;-77
2021/12/25 11:04:47;;;;;;;24.77;11.95;;;10.00;99.90;;;;;;2023438;70;21020;-77
2021/12/25 11:07:13;;;;;;;18.07;10.20;;;10.10;99.90;;;;;;2018572;70;21095;-77
2021/12/25 11:09:39;;;;;;;13.93;8.43;;;10.10;99.90;;;;;;2019537;70;21507;-77
2021/12/25 11:12:06;;;;;;;13.10;7.80;;;10.30;99.90;;;;;;2018873;70;21441;-77
2021/12/25 11:14:33;;;;;;;14.55;7.58;;;10.40;99.90;;;;;;2019291;71;21473;-78
2021/12/25 11:16:59;;;;;;;9.98;7.22;;;10.50;99.90;;;;;;2014984;70;21124;-78
2021/12/25 11:19:34;;;;;;;10.05;7.15;;;10.70;99.90;;;;;;2021333;70;21117;-77
2021/12/25 11:21:56;;;;;;;8.43;6.65;;;11.00;99.90;;;;;;2018002;70;21068;-78
2021/12/25 11:24:22;;;;;;;10.18;6.03;;;11.00;99.90;;;;;;2018440;71;21121;-77
2021/12/25 11:26:48;;;;;;;8.68;5.97;;;11.30;99.90;;;;;;2022724;70;21242;-77
2021/12/25 11:29:14;;;;;;;10.48;6.00;;;11.40;99.90;;;;;;2022689;70;21501;-77
2021/12/25 11:31:41;;;;;;;11.53;6.72;;;11.50;99.90;;;;;;2024370;70;21098;-77
2021/12/25 11:34:07;;;;;;;11.43;6.10;;;11.30;99.90;;;;;;2023113;70;21047;-78
2021/12/25 11:36:33;;;;;;;7.60;5.80;;;11.00;99.90;;;;;;2019942;70;21044;-78
2021/12/25 11:38:59;;;;;;;14.40;6.53;;;10.70;99.90;;;;;;2021535;69;21083;-77
2021/12/25 11:41:25;;;;;;;9.50;6.30;;;10.70;99.90;;;;;;2020141;70;21045;-77
2021/12/25 11:43:51;;;;;;;8.10;6.33;;;10.80;99.90;;;;;;2023436;70;21044;-78
2021/12/25 11:46:18;;;;;;;8.68;6.20;;;10.90;99.90;;;;;;2020825;70;21039;-78
2021/12/25 11:48:45;;;;;;;7.72;5.87;;;10.80;99.90;;;;;;2022834;70;21102;-78
2021/12/25 11:51:11;;;;;;;6.58;4.55;;;10.70;99.90;;;;;;2022450;69;21128;-77
2021/12/25 11:53:45;;;;;;;8.70;5.37;;;10.80;99.90;;;;;;2020493;70;21052;-78
2021/12/25 11:58:41;;;;;;;11.60;7.55;;;10.70;99.90;;;;;;2020036;71;20110;-77
2021/12/25 12:01:07;;;;;;;13.58;7.55;;;10.70;99.90;;;;;;2024166;69;21039;-77
2021/12/25 12:03:34;;;;;;;11.40;7.12;;;10.50;99.90;;;;;;2022766;70;21051;-78
2021/12/25 12:06:00;;;;;;;12.30;7.45;;;10.50;99.90;;;;;;2023000;70;21035;-78
2021/12/25 12:08:26;;;;;;;9.95;7.60;;;10.40;99.90;;;;;;2020641;70;21051;-75
2021/12/25 12:10:52;;;;;;;11.70;7.75;;;10.30;99.90;;;;;;2023419;70;21035;-77
2021/12/25 12:13:18;;;;;;;9.85;7.72;;;10.30;99.90;;;;;;2022468;70;21032;-77
2021/12/25 12:15:45;;;;;;;10.85;7.55;;;10.30;99.90;;;;;;2024402;69;21003;-77
2021/12/25 12:18:11;;;;;;;10.48;7.45;;;10.20;99.90;;;;;;2021346;70;21487;-77
2021/12/25 12:20:38;;;;;;;11.50;7.75;;;10.20;99.90;;;;;;2023199;70;21444;-77
2021/12/25 12:23:19;;;;;;;9.95;8.28;;;10.30;99.90;;;;;;2024216;70;21051;-76
2021/12/25 12:28:07;;;;;;;19.30;9.43;;;10.20;99.90;;;;;;2022368;70;21146;-75
2021/12/25 12:30:34;;;;;;;13.48;8.53;;;10.10;99.90;;;;;;2018739;71;21401;-78
2021/12/25 12:33:00;;;;;;;10.75;7.62;;;10.20;99.90;;;;;;2019642;70;21052;-77
2021/12/25 12:35:26;;;;;;;10.82;7.70;;;10.20;99.90;;;;;;2021844;70;21040;-79
2021/12/25 12:37:52;;;;;;;11.93;7.47;;;10.10;99.90;;;;;;2023588;70;21099;-76
2021/12/25 12:40:18;;;;;;;10.15;7.45;;;10.10;99.90;;;;;;2023702;70;21052;-76
2021/12/25 12:42:45;;;;;;;12.90;7.92;;;10.00;99.90;;;;;;2019901;71;21081;-76
2021/12/25 12:45:11;;;;;;;10.55;7.35;;;10.00;99.90;;;;;;2006277;70;21435;-78
2021/12/25 12:47:37;;;;;;;9.80;6.65;;;10.00;99.90;;;;;;2023349;71;21417;-78
2021/12/25 12:50:03;;;;;;;10.85;7.05;;;10.00;99.90;;;;;;2020891;70;21557;-78
2021/12/25 12:52:30;;;;;;;12.90;7.47;;;10.10;99.90;;;;;;2019633;70;21542;-76
2021/12/25 12:54:56;;;;;;;13.93;7.83;;;10.10;99.90;;;;;;2016332;70;21055;-77
2021/12/25 12:57:22;;;;;;;10.48;7.17;;;10.10;99.90;;;;;;2020030;70;21125;-77
2021/12/25 12:59:49;;;;;;;8.75;6.78;;;10.10;99.90;;;;;;2022976;69;21482;-77
2021/12/25 13:02:15;;;;;;;11.78;7.22;;;10.10;99.90;;;;;;2026088;70;21524;-77
2021/12/25 13:04:41;;;;;;;8.05;6.85;;;9.90;99.90;;;;;;2021849;70;21467;-78
2021/12/25 13:07:07;;;;;;;10.93;8.10;;;9.90;99.90;;;;;;2019641;70;21008;-78
2021/12/25 13:09:39;;;;;;;11.43;7.90;;;10.00;99.90;;;;;;2020704;70;21116;-77
2021/12/25 13:12:09;;;;;;;13.08;7.80;;;10.00;99.90;;;;;;2020308;70;21088;-77
2021/12/25 13:14:29;;;;;;;11.83;7.20;;;10.00;99.90;;;;;;2019302;70;21212;-78
2021/12/25 13:16:55;;;;;;;12.20;7.37;;;9.80;99.90;;;;;;2022138;69;21259;-77
2021/12/25 13:19:25;;;;;;;12.18;8.08;;;9.80;99.90;;;;;;2021253;70;21007;-78
2021/12/25 13:21:49;;;;;;;11.00;8.35;;;9.80;99.90;;;;;;2019740;69;21116;-77
2021/12/25 13:24:16;;;;;;;14.43;8.95;;;9.80;99.90;;;;;;2021143;70;21044;-77
2021/12/25 13:26:46;;;;;;;17.98;8.85;;;9.90;99.90;;;;;;2022075;70;21121;-77
2021/12/25 13:29:10;;;;;;;12.50;9.13;;;9.90;99.90;;;;;;2020432;70;21548;-77
2021/12/25 13:31:36;;;;;;;14.63;9.05;;;9.80;99.90;;;;;;2018445;70;21463;-77
2021/12/25 13:34:03;;;;;;;11.05;8.28;;;9.80;99.90;;;;;;2019945;69;21652;-77
2021/12/25 13:36:29;;;;;;;10.98;7.95;;;9.80;99.90;;;;;;2020671;70;21072;-77
2021/12/25 13:38:55;;;;;;;9.25;8.18;;;9.80;99.90;;;;;;2020949;69;21205;-77
2021/12/25 13:41:21;;;;;;;16.80;9.15;;;9.70;99.90;;;;;;2020036;71;21110;-77
2021/12/25 13:43:47;;;;;;;17.23;8.75;;;9.80;99.90;;;;;;2018340;70;21055;-76
2021/12/25 13:46:14;;;;;;;14.05;9.43;;;9.70;99.90;;;;;;2019790;70;21099;-76
2021/12/25 13:48:40;;;;;;;10.88;8.00;;;9.70;99.90;;;;;;2022209;69;21048;-77
2021/12/25 13:51:06;;;;;;;13.88;9.28;;;9.70;99.90;;;;;;2020746;70;21051;-76
2021/12/25 13:53:32;;;;;;;14.05;8.83;;;9.60;99.90;;;;;;2021413;70;21529;-77
2021/12/25 13:55:59;;;;;;;16.45;8.80;;;9.60;99.90;;;;;;2022713;69;21189;-76
2021/12/25 13:58:25;;;;;;;14.60;8.35;;;9.50;99.90;;;;;;2022631;70;21102;-76